sim
Sign-in with your pilot id or email,
or register
Callsign
Passwort

Schedule Details

Flight Number: OEO7284
Departure: Leipzig Halle Airport (EDDP) at 10:30
Arrival: Fuerteventura Airport (GCFV) at 15:55

Weather Information
Getting current METAR information for EDDP 181950Z 08008KT CAVOK 12/03 Q1029 NOSIG
Getting current METAR information for GCFV 182000Z 36016KT 9999 FEW045 18/11 Q1019

Schedule Frequency

Route Map